createdAt,value
2023-05-06T00:01:56.313Z,4.70
2023-05-06T00:04:24.577Z,5.18
2023-05-06T00:06:52.885Z,4.07
2023-05-06T00:09:21.319Z,4.80
2023-05-06T00:11:49.067Z,4.22
2023-05-06T00:14:16.972Z,4.93
2023-05-06T00:16:44.955Z,4.60
2023-05-06T00:19:13.275Z,4.45
2023-05-06T00:21:41.050Z,4.68
2023-05-06T00:24:08.876Z,4.97
2023-05-06T00:26:36.549Z,4.78
2023-05-06T00:29:04.272Z,4.65
2023-05-06T00:31:32.037Z,4.80
2023-05-06T00:33:59.728Z,4.90
2023-05-06T00:36:27.830Z,4.63
2023-05-06T00:38:55.534Z,4.88
2023-05-06T00:41:23.386Z,5.18
2023-05-06T00:43:51.153Z,4.72
2023-05-06T00:46:18.989Z,5.10
2023-05-06T00:48:46.843Z,5.38
2023-05-06T00:51:15.010Z,4.47
2023-05-06T00:53:42.952Z,4.80
2023-05-06T00:56:10.826Z,4.85
2023-05-06T00:58:39.273Z,5.20
2023-05-06T01:01:07.056Z,4.78
2023-05-06T01:03:34.856Z,5.10
2023-05-06T01:06:27.771Z,5.28
2023-05-06T01:09:05.997Z,5.18
2023-05-06T01:11:46.283Z,5.43
2023-05-06T01:14:48.090Z,4.95
2023-05-06T01:17:19.568Z,4.97
2023-05-06T01:19:55.317Z,4.68
2023-05-06T01:24:54.949Z,5.25
2023-05-06T01:27:25.668Z,4.70
2023-05-06T01:29:53.487Z,5.00
2023-05-06T01:33:08.336Z,5.05
2023-05-06T01:36:15.484Z,4.93
2023-05-06T01:41:18.215Z,5.07
2023-05-06T01:43:48.354Z,4.93
2023-05-06T01:46:20.489Z,5.07
2023-05-06T01:48:54.037Z,5.35
2023-05-06T01:51:27.659Z,4.47
2023-05-06T01:53:55.520Z,4.60
2023-05-06T01:56:24.006Z,4.53
2023-05-06T01:58:51.688Z,4.93
2023-05-06T02:01:19.706Z,4.88
2023-05-06T02:03:47.577Z,4.53
2023-05-06T02:06:15.592Z,4.40
2023-05-06T02:08:44.505Z,4.78
2023-05-06T02:11:17.078Z,4.60
2023-05-06T02:13:45.836Z,3.80
2023-05-06T02:16:13.795Z,3.88
2023-05-06T02:18:42.194Z,3.85
2023-05-06T02:21:11.053Z,4.50
2023-05-06T02:23:38.716Z,4.22
2023-05-06T02:26:06.505Z,4.07
2023-05-06T02:28:34.162Z,4.15
2023-05-06T02:31:01.941Z,3.97
2023-05-06T02:33:29.728Z,4.68
2023-05-06T02:35:57.393Z,4.00
2023-05-06T02:38:26.716Z,4.10
2023-05-06T02:40:54.437Z,4.03
2023-05-06T02:43:23.176Z,3.67
2023-05-06T02:45:51.093Z,4.10
2023-05-06T02:48:19.859Z,4.13
2023-05-06T02:50:47.635Z,3.90
2023-05-06T02:53:15.646Z,4.15
2023-05-06T02:55:43.329Z,4.10
2023-05-06T02:58:10.928Z,3.67
2023-05-06T03:00:38.555Z,4.38
2023-05-06T03:03:06.373Z,3.72
2023-05-06T03:05:34.131Z,4.07
2023-05-06T03:08:02.544Z,4.07
2023-05-06T03:10:31.399Z,4.10
2023-05-06T03:13:00.175Z,3.80
2023-05-06T03:15:29.228Z,3.97
2023-05-06T03:17:57.099Z,3.97
2023-05-06T03:20:25.955Z,4.45
2023-05-06T03:22:56.561Z,4.20
2023-05-06T03:25:24.998Z,4.72
2023-05-06T03:27:53.502Z,4.50
2023-05-06T03:30:23.703Z,4.78
2023-05-06T03:32:56.663Z,4.90
2023-05-06T03:35:30.328Z,4.70
2023-05-06T03:38:00.444Z,4.85
2023-05-06T03:40:36.078Z,4.85
2023-05-06T03:43:04.257Z,4.68
2023-05-06T03:45:32.024Z,4.68
2023-05-06T03:48:02.334Z,4.90
2023-05-06T03:50:32.507Z,5.07
2023-05-06T03:53:00.579Z,5.78
2023-05-06T03:55:30.039Z,5.22
2023-05-06T03:57:57.969Z,6.28
2023-05-06T04:00:26.505Z,5.53
2023-05-06T04:02:55.453Z,5.82
2023-05-06T04:05:30.090Z,6.13
2023-05-06T04:07:58.851Z,5.18
2023-05-06T04:10:26.576Z,5.38
2023-05-06T04:12:59.552Z,5.60
2023-05-06T04:15:35.267Z,5.55
2023-05-06T04:18:07.935Z,5.55
2023-05-06T04:20:38.106Z,5.07
2023-05-06T04:23:05.973Z,5.55
2023-05-06T04:25:35.826Z,5.30
2023-05-06T04:28:04.199Z,5.03
2023-05-06T04:30:32.631Z,5.80
2023-05-06T04:33:00.517Z,5.32
2023-05-06T04:35:28.561Z,5.45
2023-05-06T04:37:58.022Z,5.85
2023-05-06T04:40:30.800Z,6.00
2023-05-06T04:42:58.522Z,5.85
2023-05-06T04:45:29.887Z,5.72
2023-05-06T04:47:58.045Z,4.30
2023-05-06T04:50:26.408Z,3.42
2023-05-06T04:52:55.030Z,3.80
2023-05-06T04:55:23.611Z,4.18
2023-05-06T04:57:53.965Z,3.70
2023-05-06T05:00:22.329Z,3.75
2023-05-06T05:02:50.140Z,3.72
2023-05-06T05:05:19.396Z,4.38
2023-05-06T05:07:50.738Z,4.32
2023-05-06T05:10:18.999Z,3.65
2023-05-06T05:12:51.988Z,4.18
2023-05-06T05:15:21.197Z,4.20
2023-05-06T05:17:51.169Z,4.40
2023-05-06T05:20:21.494Z,5.53
2023-05-06T05:22:49.251Z,5.90
2023-05-06T05:25:17.026Z,6.18
2023-05-06T05:27:46.333Z,6.95
2023-05-06T05:30:14.271Z,6.80
2023-05-06T05:32:42.671Z,6.78
2023-05-06T05:35:11.187Z,7.10
2023-05-06T05:37:41.339Z,7.10
2023-05-06T05:40:10.490Z,7.78
2023-05-06T05:42:40.915Z,7.88
2023-05-06T05:45:16.803Z,7.82
2023-05-06T05:47:46.258Z,7.45
2023-05-06T05:50:14.834Z,7.60
2023-05-06T05:52:42.651Z,7.28
2023-05-06T05:55:11.410Z,8.88
2023-05-06T05:57:40.536Z,8.27
2023-05-06T06:00:10.578Z,8.00
2023-05-06T06:02:45.497Z,8.35
2023-05-06T06:05:18.425Z,7.65
2023-05-06T06:07:47.037Z,7.90
2023-05-06T06:10:15.444Z,8.23
2023-05-06T06:12:44.754Z,8.85
2023-05-06T06:15:16.263Z,7.05
2023-05-06T06:17:45.621Z,7.72
2023-05-06T06:20:13.799Z,7.60
2023-05-06T06:22:41.651Z,7.95
2023-05-06T06:25:10.225Z,7.00
2023-05-06T06:27:38.608Z,6.95
2023-05-06T06:30:08.865Z,6.70
2023-05-06T06:32:36.765Z,6.95
2023-05-06T06:35:05.201Z,6.20
2023-05-06T06:37:32.931Z,6.55
2023-05-06T06:40:00.724Z,6.28
2023-05-06T06:42:28.348Z,6.28
2023-05-06T06:45:11.020Z,6.10
2023-05-06T06:47:38.944Z,6.35
2023-05-06T06:50:08.390Z,5.78
2023-05-06T06:52:36.113Z,5.65
2023-05-06T06:55:04.180Z,5.47
2023-05-06T06:57:32.226Z,5.90
2023-05-06T06:59:59.901Z,5.10
2023-05-06T07:02:27.641Z,5.18
2023-05-06T07:04:55.326Z,5.38
2023-05-06T07:07:23.063Z,5.00
2023-05-06T07:09:50.734Z,5.38
2023-05-06T07:12:18.359Z,5.32
2023-05-06T07:14:46.321Z,5.28
2023-05-06T07:17:13.955Z,5.00
2023-05-06T07:19:41.906Z,5.70
2023-05-06T07:22:09.579Z,5.63
2023-05-06T07:24:37.445Z,5.70
2023-05-06T07:27:05.079Z,5.53
2023-05-06T07:29:32.942Z,5.05
2023-05-06T07:32:00.740Z,5.30
2023-05-06T07:34:28.385Z,5.22
2023-05-06T07:36:56.449Z,5.22
2023-05-06T07:39:24.139Z,5.03
2023-05-06T07:41:51.970Z,4.85
2023-05-06T07:44:19.751Z,5.15
2023-05-06T07:46:47.640Z,5.22
2023-05-06T07:49:15.446Z,4.82
2023-05-06T07:51:44.232Z,5.00
2023-05-06T07:54:12.703Z,5.25
2023-05-06T07:56:40.398Z,4.72
2023-05-06T07:59:08.100Z,4.97
2023-05-06T08:01:36.071Z,4.82
2023-05-06T08:04:04.333Z,4.90
2023-05-06T08:06:32.337Z,5.00
2023-05-06T08:09:00.689Z,5.07
2023-05-06T08:11:28.369Z,5.00
2023-05-06T08:13:56.280Z,4.85
2023-05-06T08:16:25.540Z,5.00
2023-05-06T08:18:53.429Z,4.93
2023-05-06T08:21:21.171Z,4.53
2023-05-06T08:23:48.790Z,4.28
2023-05-06T08:26:16.567Z,4.38
2023-05-06T08:28:44.229Z,4.18
2023-05-06T08:31:12.100Z,4.15
2023-05-06T08:33:39.763Z,4.63
2023-05-06T08:36:07.891Z,4.28
2023-05-06T08:38:35.699Z,4.25
2023-05-06T08:41:11.982Z,4.38
2023-05-06T08:43:46.125Z,4.28
2023-05-06T08:46:14.333Z,3.78
2023-05-06T08:48:42.313Z,3.78
2023-05-06T08:51:13.878Z,3.90
2023-05-06T08:53:48.131Z,3.58
2023-05-06T08:56:16.765Z,3.97
2023-05-06T08:58:48.568Z,3.28
2023-05-06T09:01:16.553Z,3.22
2023-05-06T09:03:44.358Z,3.95
2023-05-06T09:06:12.289Z,3.33
2023-05-06T09:08:40.052Z,3.03
2023-05-06T09:11:43.198Z,3.15
2023-05-06T09:14:16.672Z,3.35
2023-05-06T09:16:50.936Z,3.42
2023-05-06T09:19:22.554Z,3.15
2023-05-06T09:21:52.102Z,2.97
2023-05-06T09:24:21.222Z,3.20
2023-05-06T09:26:48.920Z,2.88
2023-05-06T09:29:16.656Z,3.85
2023-05-06T09:31:48.510Z,4.00
2023-05-06T09:34:17.958Z,3.55
2023-05-06T09:36:45.658Z,2.63
2023-05-06T09:39:13.365Z,2.92
2023-05-06T09:41:41.229Z,2.92
2023-05-06T09:44:09.021Z,3.05
2023-05-06T09:46:37.126Z,3.22
2023-05-06T09:49:06.150Z,2.40
2023-05-06T09:51:34.542Z,2.95
2023-05-06T09:54:02.825Z,2.80
2023-05-06T09:56:31.461Z,3.05
2023-05-06T09:59:01.450Z,3.25
2023-05-06T10:01:36.690Z,2.88
2023-05-06T10:04:09.524Z,3.42
2023-05-06T10:06:40.876Z,2.97
2023-05-06T10:09:09.721Z,2.53
2023-05-06T10:11:37.521Z,2.40
2023-05-06T10:14:06.960Z,2.45
2023-05-06T10:16:36.566Z,2.33
2023-05-06T10:19:06.830Z,2.40
2023-05-06T10:21:39.620Z,2.42
2023-05-06T10:24:11.917Z,2.60
2023-05-06T10:26:41.063Z,3.08
2023-05-06T10:29:12.076Z,2.53
2023-05-06T10:31:56.701Z,2.70
2023-05-06T10:34:26.402Z,3.08
2023-05-06T10:36:57.614Z,2.60
2023-05-06T10:39:26.621Z,3.03
2023-05-06T10:41:54.547Z,3.22
2023-05-06T10:45:04.096Z,3.00
2023-05-06T10:47:56.107Z,2.88
2023-05-06T10:50:27.782Z,2.85
2023-05-06T10:52:58.970Z,2.80
2023-05-06T10:55:31.019Z,2.70
2023-05-06T10:58:16.650Z,2.75
2023-05-06T11:00:55.529Z,2.75
2023-05-06T11:03:24.304Z,2.88
2023-05-06T11:05:52.769Z,3.03
2023-05-06T11:08:27.573Z,2.55
2023-05-06T11:10:55.713Z,2.75
2023-05-06T11:13:29.705Z,2.55
2023-05-06T11:15:58.798Z,3.10
2023-05-06T11:18:33.990Z,3.05
2023-05-06T11:21:06.923Z,3.85
2023-05-06T11:23:43.512Z,3.88
2023-05-06T11:26:12.235Z,3.88
2023-05-06T11:28:43.787Z,4.75
2023-05-06T11:31:13.569Z,4.07
2023-05-06T11:33:50.366Z,5.03
2023-05-06T11:36:20.620Z,4.68
2023-05-06T11:38:53.170Z,4.80
2023-05-06T11:41:23.272Z,5.80
2023-05-06T11:43:53.483Z,6.00
2023-05-06T11:46:23.617Z,6.93
2023-05-06T11:48:51.518Z,5.38
2023-05-06T11:51:23.345Z,5.00
2023-05-06T11:53:52.838Z,4.10
2023-05-06T11:56:20.771Z,4.65
2023-05-06T11:58:48.381Z,3.40
2023-05-06T12:01:16.023Z,2.20
2023-05-06T12:03:43.854Z,2.20
2023-05-06T12:06:12.847Z,2.10
2023-05-06T12:08:40.797Z,1.60
2023-05-06T12:11:09.285Z,1.45
2023-05-06T12:13:37.834Z,1.70
2023-05-06T12:16:08.463Z,1.65
2023-05-06T12:18:36.467Z,1.70
2023-05-06T12:21:04.393Z,1.45
2023-05-06T12:23:32.204Z,1.67
2023-05-06T12:26:02.944Z,1.40
2023-05-06T12:28:33.119Z,1.60
2023-05-06T12:31:20.988Z,1.52
2023-05-06T12:33:50.529Z,1.80
2023-05-06T12:36:19.463Z,2.08
2023-05-06T12:38:55.114Z,1.50
2023-05-06T12:41:24.936Z,1.80
2023-05-06T12:43:52.964Z,1.27
2023-05-06T12:46:20.862Z,1.90
2023-05-06T12:49:02.585Z,1.65
2023-05-06T12:51:31.153Z,2.15
2023-05-06T12:53:58.956Z,2.30
2023-05-06T12:56:26.662Z,1.88
2023-05-06T12:59:03.309Z,1.60
2023-05-06T13:01:31.827Z,1.90
2023-05-06T13:03:59.591Z,1.77
2023-05-06T13:06:27.225Z,1.52
2023-05-06T13:08:54.941Z,2.08
2023-05-06T13:11:24.523Z,1.92
2023-05-06T13:13:52.310Z,2.55
2023-05-06T13:16:19.974Z,1.60
2023-05-06T13:18:47.750Z,1.95
2023-05-06T13:21:15.879Z,1.80
2023-05-06T13:23:47.589Z,2.28
2023-05-06T13:26:17.417Z,1.40
2023-05-06T13:28:45.151Z,2.03
2023-05-06T13:31:12.917Z,2.00
2023-05-06T13:33:41.011Z,1.90
2023-05-06T13:36:09.066Z,1.90
2023-05-06T13:38:36.713Z,1.83
2023-05-06T13:41:04.422Z,1.92
2023-05-06T13:43:32.103Z,1.80
2023-05-06T13:45:59.829Z,2.00
2023-05-06T13:48:27.531Z,2.05
2023-05-06T13:50:55.203Z,1.80
2023-05-06T13:53:22.852Z,2.95
2023-05-06T13:55:50.773Z,2.78
2023-05-06T13:58:18.976Z,2.35
2023-05-06T14:00:46.653Z,2.53
2023-05-06T14:03:14.268Z,2.80
2023-05-06T14:05:42.101Z,3.65
2023-05-06T14:08:09.741Z,2.58
2023-05-06T14:10:37.475Z,3.28
2023-05-06T14:13:07.096Z,3.58
2023-05-06T14:15:35.131Z,2.95
2023-05-06T14:18:04.077Z,3.08
2023-05-06T14:20:31.954Z,3.17
2023-05-06T14:22:59.610Z,3.15
2023-05-06T14:25:28.081Z,3.28
2023-05-06T14:27:55.956Z,3.00
2023-05-06T14:30:24.673Z,2.60
2023-05-06T14:32:52.419Z,2.78
2023-05-06T14:35:20.323Z,2.45
2023-05-06T14:37:48.086Z,4.15
2023-05-06T14:40:16.430Z,2.97
2023-05-06T14:42:45.976Z,2.10
2023-05-06T14:45:15.720Z,2.25
2023-05-06T14:47:43.386Z,3.10
2023-05-06T14:50:12.910Z,2.70
2023-05-06T14:52:41.403Z,2.67
2023-05-06T14:55:11.110Z,2.60
2023-05-06T14:57:39.048Z,2.70
2023-05-06T15:00:14.852Z,1.98
2023-05-06T15:02:42.807Z,2.25
2023-05-06T15:05:12.089Z,2.13
2023-05-06T15:07:40.327Z,2.42
2023-05-06T15:10:08.444Z,2.30
2023-05-06T15:12:37.235Z,1.80
2023-05-06T15:15:06.055Z,2.10
2023-05-06T15:17:34.041Z,1.98
2023-05-06T15:20:01.979Z,2.03
2023-05-06T15:22:29.744Z,1.90
2023-05-06T15:24:57.525Z,1.80
2023-05-06T15:27:25.386Z,1.73
2023-05-06T15:29:53.052Z,1.90
2023-05-06T15:32:20.889Z,1.85
2023-05-06T15:34:48.560Z,1.77
2023-05-06T15:37:19.318Z,2.00
2023-05-06T15:39:47.967Z,1.63
2023-05-06T15:42:17.332Z,1.63
2023-05-06T15:44:47.361Z,2.00
2023-05-06T15:47:15.088Z,2.10
2023-05-06T15:52:13.318Z,1.70
2023-05-06T15:54:41.200Z,1.85
2023-05-06T15:57:09.753Z,1.65
2023-05-06T15:59:37.551Z,1.50
2023-05-06T16:04:37.205Z,1.75
2023-05-06T16:07:05.053Z,1.83
2023-05-06T16:09:32.754Z,2.28
2023-05-06T16:12:00.692Z,1.83
2023-05-06T16:14:28.334Z,1.77
2023-05-06T16:16:56.225Z,2.03
2023-05-06T16:19:24.022Z,1.70
2023-05-06T16:21:53.191Z,2.38
2023-05-06T16:24:20.844Z,2.13
2023-05-06T16:26:48.741Z,2.03
2023-05-06T16:29:19.107Z,1.83
2023-05-06T16:31:48.193Z,1.90
2023-05-06T16:34:16.175Z,1.60
2023-05-06T16:36:43.905Z,1.80
2023-05-06T16:39:12.034Z,1.83
2023-05-06T16:41:39.679Z,1.42
2023-05-06T16:44:07.466Z,1.70
2023-05-06T16:46:35.455Z,1.85
2023-05-06T16:49:04.552Z,2.00
2023-05-06T16:51:32.362Z,1.77
2023-05-06T16:53:59.980Z,1.65
2023-05-06T16:56:36.637Z,1.30
2023-05-06T16:59:08.083Z,2.40
2023-05-06T17:01:35.754Z,1.70
2023-05-06T17:04:03.545Z,1.30
2023-05-06T17:06:32.966Z,1.83
2023-05-06T17:09:00.593Z,1.77
2023-05-06T17:11:28.252Z,1.85
2023-05-06T17:13:55.926Z,2.08
2023-05-06T17:16:23.667Z,1.75
2023-05-06T17:18:51.366Z,1.67
2023-05-06T17:21:20.692Z,2.35
2023-05-06T17:23:48.436Z,1.80
2023-05-06T17:26:17.840Z,1.80
2023-05-06T17:28:46.405Z,1.70
2023-05-06T17:31:18.413Z,1.65
2023-05-06T17:33:46.364Z,1.52
2023-05-06T17:36:14.341Z,2.20
2023-05-06T17:38:42.290Z,1.98
2023-05-06T17:41:10.183Z,1.92
2023-05-06T17:43:37.978Z,1.55
2023-05-06T17:46:07.052Z,2.55
2023-05-06T17:48:35.356Z,2.00
2023-05-06T17:51:03.643Z,2.20
2023-05-06T17:53:33.383Z,2.58
2023-05-06T17:56:01.250Z,2.20
2023-05-06T17:58:28.979Z,2.50
2023-05-06T18:00:57.494Z,2.47
2023-05-06T18:03:25.512Z,1.98
2023-05-06T18:05:53.240Z,2.40
2023-05-06T18:08:20.936Z,2.47
2023-05-06T18:10:50.431Z,2.22
2023-05-06T18:13:18.164Z,2.13
2023-05-06T18:15:45.895Z,2.55
2023-05-06T18:18:13.702Z,1.77
2023-05-06T18:20:42.082Z,2.40
2023-05-06T18:23:10.126Z,1.90
2023-05-06T18:25:37.761Z,2.10
2023-05-06T18:28:05.558Z,2.50
2023-05-06T18:30:33.274Z,2.38
2023-05-06T18:33:01.018Z,2.15
2023-05-06T18:35:28.851Z,1.88
2023-05-06T18:37:56.475Z,2.17
2023-05-06T18:40:24.103Z,1.90
2023-05-06T18:42:51.811Z,2.40
2023-05-06T18:45:19.500Z,2.53
2023-05-06T18:47:47.311Z,2.10
2023-05-06T18:50:14.996Z,2.15
2023-05-06T18:52:42.746Z,2.35
2023-05-06T18:55:11.047Z,1.90
2023-05-06T18:57:39.615Z,2.50
2023-05-06T19:00:08.184Z,2.50
2023-05-06T19:02:35.945Z,2.40
2023-05-06T19:05:04.242Z,2.75
2023-05-06T19:07:32.081Z,2.30
2023-05-06T19:09:59.675Z,2.30
2023-05-06T19:12:27.353Z,2.67
2023-05-06T19:14:55.012Z,2.33
2023-05-06T19:17:22.922Z,3.47
2023-05-06T19:19:51.016Z,3.58
2023-05-06T19:22:18.755Z,2.70
2023-05-06T19:24:46.452Z,2.05
2023-05-06T19:27:14.094Z,2.58
2023-05-06T19:29:41.885Z,2.60
2023-05-06T19:32:09.619Z,2.58
2023-05-06T19:34:37.419Z,2.20
2023-05-06T19:37:05.108Z,2.38
2023-05-06T19:39:32.757Z,3.10
2023-05-06T19:42:00.493Z,2.60
2023-05-06T19:44:28.109Z,2.40
2023-05-06T19:46:58.691Z,2.40
2023-05-06T19:49:26.379Z,3.08
2023-05-06T19:51:54.006Z,2.50
2023-05-06T19:54:22.472Z,2.85
2023-05-06T19:56:50.147Z,2.80
2023-05-06T19:59:18.194Z,2.65
2023-05-06T20:01:45.970Z,2.65
2023-05-06T20:04:13.754Z,2.33
2023-05-06T20:06:41.501Z,2.55
2023-05-06T20:09:10.313Z,2.92
2023-05-06T20:11:38.086Z,2.80
2023-05-06T20:14:05.890Z,2.28
2023-05-06T20:16:33.581Z,2.38
2023-05-06T20:19:01.376Z,2.67
2023-05-06T20:21:29.048Z,3.10
2023-05-06T20:23:56.687Z,2.30
2023-05-06T20:26:25.034Z,2.50
2023-05-06T20:28:53.273Z,2.97
2023-05-06T20:31:21.167Z,3.28
2023-05-06T20:33:48.822Z,2.85
2023-05-06T20:36:16.504Z,3.17
2023-05-06T20:38:44.227Z,2.92
2023-05-06T20:41:11.859Z,3.65
2023-05-06T20:43:39.512Z,3.88
2023-05-06T20:46:07.217Z,4.10
2023-05-06T20:48:35.047Z,3.67
2023-05-06T20:51:02.784Z,4.03
2023-05-06T20:53:30.535Z,4.30
2023-05-06T20:55:58.222Z,4.38
2023-05-06T20:58:26.030Z,4.75
2023-05-06T21:00:53.928Z,4.10
2023-05-06T21:03:21.854Z,3.75
2023-05-06T21:05:49.881Z,4.18
2023-05-06T21:08:18.188Z,4.53
2023-05-06T21:10:45.917Z,5.57
2023-05-06T21:13:13.663Z,5.90
2023-05-06T21:15:41.378Z,5.60
2023-05-06T21:18:09.211Z,5.30
2023-05-06T21:20:37.014Z,5.28
2023-05-06T21:23:04.792Z,5.53
2023-05-06T21:25:32.954Z,4.97
2023-05-06T21:28:05.465Z,3.95
2023-05-06T21:30:36.279Z,4.25
2023-05-06T21:33:10.838Z,4.20
2023-05-06T21:35:38.664Z,4.13
2023-05-06T21:38:07.277Z,3.63
2023-05-06T21:40:34.946Z,4.85
2023-05-06T21:43:03.380Z,3.92
2023-05-06T21:45:31.193Z,4.50
2023-05-06T21:47:58.826Z,4.75
2023-05-06T21:50:26.960Z,5.00
2023-05-06T21:52:54.658Z,6.07
2023-05-06T21:55:22.952Z,5.47
2023-05-06T21:57:50.798Z,5.75
2023-05-06T22:00:18.910Z,7.00
2023-05-06T22:02:46.985Z,7.22
2023-05-06T22:05:14.924Z,7.43
2023-05-06T22:07:42.693Z,6.97
2023-05-06T22:10:10.881Z,8.02
2023-05-06T22:12:38.621Z,7.25
2023-05-06T22:15:07.539Z,7.25
2023-05-06T22:17:35.181Z,7.20
2023-05-06T22:20:03.086Z,8.23
2023-05-06T22:22:31.208Z,8.10
2023-05-06T22:24:58.883Z,10.05
2023-05-06T22:27:26.522Z,9.20
2023-05-06T22:29:54.193Z,8.57
2023-05-06T22:32:21.939Z,9.23
2023-05-06T22:34:49.608Z,7.50
2023-05-06T22:37:17.405Z,8.27
2023-05-06T22:39:45.190Z,9.52
2023-05-06T22:42:13.101Z,9.73
2023-05-06T22:44:40.779Z,9.95
2023-05-06T22:47:09.156Z,11.18
2023-05-06T22:49:37.959Z,10.20
2023-05-06T22:52:05.737Z,10.18
2023-05-06T22:54:33.713Z,11.02
2023-05-06T22:57:01.461Z,10.20
2023-05-06T22:59:29.167Z,10.55
2023-05-06T23:01:56.906Z,10.48
2023-05-06T23:04:24.673Z,10.55
2023-05-06T23:06:52.338Z,11.05
2023-05-06T23:09:20.071Z,11.18
2023-05-06T23:11:47.846Z,10.85
2023-05-06T23:14:17.424Z,10.25
2023-05-06T23:16:45.146Z,10.60
2023-05-06T23:19:12.877Z,9.45
2023-05-06T23:21:41.546Z,10.13
2023-05-06T23:24:09.946Z,11.40
2023-05-06T23:26:37.672Z,11.10
2023-05-06T23:29:05.483Z,10.93
2023-05-06T23:31:33.240Z,9.52
2023-05-06T23:34:00.920Z,10.05
2023-05-06T23:36:28.581Z,9.65
2023-05-06T23:38:56.544Z,9.02
2023-05-06T23:41:24.536Z,8.73
2023-05-06T23:43:52.200Z,8.48
2023-05-06T23:46:20.079Z,8.15
2023-05-06T23:48:47.843Z,8.07
2023-05-06T23:51:15.564Z,8.25
2023-05-06T23:53:43.497Z,7.95
2023-05-06T23:56:11.197Z,7.75
2023-05-06T23:58:38.819Z,7.93
